Time;durP1;ratioP1;P1;durP2;ratioP2;P2;SDS_P1;SDS_P2;PMS_P1;PMS_P2;Temp;Humidity;BMP_temperature;BMP_pressure;BME280_temperature;BME280_humidity;BME280_pressure;Samples;Min_cycle;Max_cycle;Signal;HPM_P1;HPM_P2
2021/09/19 00:01:12;;;;;;;3.70;3.50;;;;;;;23.22;46.79;98168.97;5115662;28;20512;-52
2021/09/19 00:03:39;;;;;;;3.90;3.70;;;;;;;23.21;46.85;98167.34;5114470;28;20248;-52
2021/09/19 00:06:06;;;;;;;3.87;3.57;;;;;;;23.22;46.81;98169.78;5114842;28;20198;-52
2021/09/19 00:08:33;;;;;;;4.03;3.73;;;;;;;23.23;46.76;98171.44;5114417;28;20248;-52
2021/09/19 00:11:00;;;;;;;3.90;3.70;;;;;;;23.23;46.75;98165.31;5114505;28;20187;-52
2021/09/19 00:13:27;;;;;;;3.73;3.53;;;;;;;23.23;46.85;98168.75;5114327;28;20264;-52
2021/09/19 00:15:53;;;;;;;3.87;3.67;;;;;;;23.24;46.79;98161.63;5114608;28;20253;-52
2021/09/19 00:18:20;;;;;;;3.77;3.57;;;;;;;23.22;46.65;98163.66;5113613;28;20203;-50
2021/09/19 00:20:47;;;;;;;4.00;3.70;;;;;;;23.21;46.72;98160.16;5114164;28;20248;-53
2021/09/19 00:23:15;;;;;;;3.90;3.70;;;;;;;23.20;46.83;98161.19;5114757;28;20578;-52
2021/09/19 00:25:42;;;;;;;3.90;3.70;;;;;;;23.20;46.84;98161.19;5114173;28;20179;-52
2021/09/19 00:28:08;;;;;;;3.73;3.53;;;;;;;23.20;46.84;98150.53;5112988;28;20187;-52
2021/09/19 00:30:35;;;;;;;3.80;3.60;;;;;;;23.20;46.68;98142.53;5114226;28;20211;-53
2021/09/19 00:33:01;;;;;;;3.70;3.50;;;;;;;23.20;46.86;98147.88;5113995;28;20207;-55
2021/09/19 00:35:28;;;;;;;3.80;3.50;;;;;;;23.20;46.84;98147.88;5113998;28;20183;-54
2021/09/19 00:37:54;;;;;;;4.00;3.70;;;;;;;23.20;46.77;98147.88;5113916;28;20210;-52
2021/09/19 00:40:22;;;;;;;3.80;3.50;;;;;;;23.20;46.62;98150.53;5113803;28;20211;-52
2021/09/19 00:42:48;;;;;;;3.80;3.60;;;;;;;23.21;46.70;98146.84;5113836;28;20187;-52
2021/09/19 00:45:18;;;;;;;4.07;3.77;;;;;;;23.22;46.91;98143.16;5113809;28;20241;-52
2021/09/19 00:47:47;;;;;;;3.43;3.23;;;;;;;23.23;46.70;98146.66;5113817;27;20180;-53
2021/09/19 00:50:17;;;;;;;3.40;3.20;;;;;;;23.22;46.54;98140.50;5113736;28;20574;-52
2021/09/19 00:52:45;;;;;;;3.53;3.33;;;;;;;23.25;46.67;98145.47;5112360;28;20219;-53
2021/09/19 00:55:13;;;;;;;4.07;3.77;;;;;;;23.25;46.67;98139.28;5113634;28;20248;-53
2021/09/19 00:57:49;;;;;;;4.07;3.80;;;;;;;23.21;46.76;98143.38;5113625;28;20191;-52
2021/09/19 01:00:19;;;;;;;4.13;3.83;;;;;;;23.20;46.69;98137.22;5114079;28;20222;-54
2021/09/19 01:02:46;;;;;;;3.90;3.60;;;;;;;23.18;46.83;98131.28;5113858;28;20224;-52
2021/09/19 01:05:16;;;;;;;3.63;3.43;;;;;;;23.19;46.74;98135.59;5113523;28;20676;-52
2021/09/19 01:07:44;;;;;;;3.50;3.30;;;;;;;23.18;46.78;98135.81;5113874;28;20166;-53
2021/09/19 01:10:12;;;;;;;3.73;3.53;;;;;;;23.19;46.71;98129.47;5113668;28;20207;-52
2021/09/19 01:12:39;;;;;;;3.73;3.53;;;;;;;23.21;46.63;98130.88;5113356;28;20207;-53
2021/09/19 01:15:07;;;;;;;3.63;3.43;;;;;;;23.20;46.59;98129.25;5113410;28;20243;-52
2021/09/19 01:17:34;;;;;;;3.77;3.57;;;;;;;23.19;46.64;98126.78;5113478;28;20199;-51
2021/09/19 01:20:02;;;;;;;3.77;3.50;;;;;;;23.20;46.42;98125.78;5113341;28;20207;-52
2021/09/19 01:22:34;;;;;;;3.73;3.53;;;;;;;23.19;46.58;98124.94;5113612;28;20209;-52
2021/09/19 01:25:03;;;;;;;3.77;3.47;;;;;;;23.19;46.66;98118.81;5113602;28;20205;-52
2021/09/19 01:27:30;;;;;;;3.87;3.67;;;;;;;23.19;46.66;98122.28;5113347;28;20190;-54
2021/09/19 01:29:56;;;;;;;3.57;3.37;;;;;;;23.19;46.61;98122.28;5115198;28;20238;-52
2021/09/19 01:32:23;;;;;;;3.80;3.60;;;;;;;23.15;46.78;98126.38;5117474;28;20198;-52
2021/09/19 01:34:50;;;;;;;3.90;3.60;;;;;;;23.14;46.65;98122.06;5117466;28;20191;-54
2021/09/19 01:37:17;;;;;;;3.60;3.40;;;;;;;23.13;46.84;98117.75;5117459;28;20187;-54
2021/09/19 01:39:44;;;;;;;3.40;3.20;;;;;;;23.12;46.75;98118.78;5117594;28;20211;-54
2021/09/19 01:42:11;;;;;;;3.33;3.13;;;;;;;23.11;46.82;98112.63;5117638;28;20187;-52
2021/09/19 01:44:39;;;;;;;3.53;3.27;;;;;;;23.10;46.88;98113.66;5117260;28;20191;-51
2021/09/19 01:47:06;;;;;;;3.77;3.50;;;;;;;23.08;46.94;98113.03;5117815;28;20210;-54
2021/09/19 01:49:32;;;;;;;3.93;3.63;;;;;;;23.09;46.87;98111.22;5117405;28;20214;-54
2021/09/19 01:51:59;;;;;;;3.67;3.47;;;;;;;23.10;46.86;98102.19;5117165;28;20188;-52
2021/09/19 01:54:27;;;;;;;3.67;3.47;;;;;;;23.11;46.74;98111.81;5117543;28;20580;-52
2021/09/19 01:56:54;;;;;;;3.47;3.27;;;;;;;23.12;46.88;98108.13;5117063;28;20187;-54
2021/09/19 01:59:20;;;;;;;3.60;3.30;;;;;;;23.12;46.75;98105.47;5117000;28;20693;-54
2021/09/19 02:01:47;;;;;;;3.73;3.50;;;;;;;23.12;46.81;98100.16;5116973;28;20191;-52
2021/09/19 02:04:14;;;;;;;3.80;3.60;;;;;;;23.09;46.83;98098.69;5117155;28;20218;-54
2021/09/19 02:06:40;;;;;;;3.37;3.17;;;;;;;23.09;46.86;98095.25;5117197;28;20548;-52
2021/09/19 02:09:07;;;;;;;3.63;3.43;;;;;;;23.09;46.88;98092.56;5116848;28;20215;-52
2021/09/19 02:11:33;;;;;;;3.23;3.03;;;;;;;23.08;46.87;98099.72;5117140;28;20240;-53
2021/09/19 02:14:00;;;;;;;3.63;3.43;;;;;;;23.08;46.99;98090.94;5116985;28;20638;-54
2021/09/19 02:16:26;;;;;;;3.50;3.30;;;;;;;23.07;46.92;98091.94;5116520;28;20726;-52
2021/09/19 02:18:53;;;;;;;3.77;3.47;;;;;;;23.07;47.05;98086.59;5116933;28;20210;-53
2021/09/19 02:21:19;;;;;;;3.77;3.57;;;;;;;23.05;46.91;98089.47;5116889;27;20187;-53
2021/09/19 02:23:46;;;;;;;3.40;3.20;;;;;;;23.05;46.79;98086.81;5116848;28;20553;-54
2021/09/19 02:26:12;;;;;;;3.40;3.20;;;;;;;23.06;47.07;98091.13;5116540;28;20240;-52
2021/09/19 02:28:39;;;;;;;3.50;3.30;;;;;;;23.06;46.91;98082.31;5116564;28;20228;-54
2021/09/19 02:31:05;;;;;;;3.40;3.20;;;;;;;23.06;46.78;98084.97;5116975;28;20187;-52
2021/09/19 02:33:32;;;;;;;3.57;3.37;;;;;;;23.06;46.89;98079.66;5116988;28;20203;-52
2021/09/19 02:36:00;;;;;;;3.40;3.20;;;;;;;23.07;46.82;98081.28;5116590;28;20187;-53
2021/09/19 02:38:27;;;;;;;3.70;3.50;;;;;;;23.08;46.62;98078.44;5116528;28;20187;-52
2021/09/19 02:40:54;;;;;;;3.33;3.13;;;;;;;23.09;46.72;98079.28;5115633;28;20567;-52
2021/09/19 02:43:22;;;;;;;4.00;3.70;;;;;;;23.09;46.52;98079.28;5116154;28;20221;-53
2021/09/19 02:45:50;;;;;;;3.37;3.17;;;;;;;23.09;46.95;98079.28;5116424;28;20232;-52
2021/09/19 02:48:16;;;;;;;3.40;3.20;;;;;;;23.07;46.87;98075.97;5116173;28;20274;-53
2021/09/19 02:50:43;;;;;;;3.47;3.27;;;;;;;23.06;46.76;98072.50;5116041;28;20259;-52
2021/09/19 02:53:12;;;;;;;3.00;2.80;;;;;;;23.05;46.79;98072.69;5116449;28;20263;-52
2021/09/19 02:55:38;;;;;;;3.23;3.03;;;;;;;23.06;46.90;98074.31;5115967;28;20240;-53
2021/09/19 02:58:05;;;;;;;3.70;3.50;;;;;;;23.05;46.80;98072.69;5115985;28;20786;-53
2021/09/19 03:00:32;;;;;;;3.40;3.20;;;;;;;23.04;46.98;98071.03;5115832;28;20207;-52
2021/09/19 03:02:58;;;;;;;3.30;3.10;;;;;;;23.04;46.91;98076.38;5116089;28;20188;-53
2021/09/19 03:05:25;;;;;;;3.50;3.30;;;;;;;23.01;46.88;98071.44;5115816;28;20222;-54
2021/09/19 03:07:54;;;;;;;3.50;3.30;;;;;;;22.97;46.80;98077.19;5116277;28;20187;-52
2021/09/19 03:10:21;;;;;;;2.93;2.80;;;;;;;22.99;47.05;98068.16;5116118;28;20211;-52
2021/09/19 03:12:47;;;;;;;3.30;3.10;;;;;;;22.98;47.11;98072.66;5115553;28;20191;-52
2021/09/19 03:15:14;;;;;;;3.30;3.10;;;;;;;22.96;47.01;98075.53;5115609;28;20237;-52
2021/09/19 03:17:40;;;;;;;3.40;3.20;;;;;;;22.97;47.04;98071.84;5115715;28;20191;-52
2021/09/19 03:20:10;;;;;;;3.40;3.20;;;;;;;22.96;47.05;98078.19;5115418;28;20211;-54
2021/09/19 03:22:38;;;;;;;3.20;3.00;;;;;;;22.95;46.85;98073.06;5115472;28;20187;-52
2021/09/19 03:25:05;;;;;;;3.30;3.10;;;;;;;22.96;47.13;98070.22;5115445;28;20661;-54
2021/09/19 03:27:32;;;;;;;3.50;3.30;;;;;;;22.97;46.83;98074.50;5115382;28;20184;-55
2021/09/19 03:29:59;;;;;;;3.13;2.93;;;;;;;22.97;46.95;98077.19;5115256;28;20768;-52
2021/09/19 03:32:26;;;;;;;3.37;3.17;;;;;;;22.97;46.95;98066.53;5115286;28;20233;-53
2021/09/19 03:34:53;;;;;;;3.13;2.93;;;;;;;22.96;46.93;98064.91;5115131;28;20230;-52
2021/09/19 03:37:19;;;;;;;3.10;2.90;;;;;;;22.95;47.01;98060.59;5115444;28;20198;-52
2021/09/19 03:39:45;;;;;;;3.13;2.93;;;;;;;22.95;46.83;98057.94;5115285;28;20207;-54
2021/09/19 03:42:12;;;;;;;3.47;3.27;;;;;;;22.94;46.95;98050.97;5115312;28;20192;-53
2021/09/19 03:44:38;;;;;;;3.33;3.13;;;;;;;22.94;47.07;98056.28;5115099;28;20183;-54
2021/09/19 03:47:05;;;;;;;3.20;3.00;;;;;;;22.95;46.74;98057.94;5115224;28;20221;-54
2021/09/19 03:49:31;;;;;;;3.30;3.10;;;;;;;22.94;46.89;98061.63;5114975;28;20564;-52
2021/09/19 03:51:58;;;;;;;3.43;3.13;;;;;;;22.96;47.10;98061.41;5114314;28;20299;-51
2021/09/19 03:54:24;;;;;;;2.93;2.73;;;;;;;22.96;46.89;98069.38;5114804;28;20541;-54
2021/09/19 03:56:51;;;;;;;3.03;2.83;;;;;;;22.94;47.05;98061.63;5114861;28;20191;-53
2021/09/19 03:59:17;;;;;;;3.30;3.10;;;;;;;22.92;47.00;98068.97;5114714;28;20211;-51
2021/09/19 04:01:44;;;;;;;2.87;2.73;;;;;;;22.92;47.06;98060.16;5115002;28;20187;-52
2021/09/19 04:04:10;;;;;;;3.17;2.97;;;;;;;22.93;46.91;98059.13;5114681;28;20179;-54
2021/09/19 04:06:37;;;;;;;3.30;3.10;;;;;;;22.95;46.84;98065.91;5114634;28;20607;-52
2021/09/19 04:09:03;;;;;;;3.13;2.93;;;;;;;22.93;46.91;98059.97;5114988;28;20294;-54
2021/09/19 04:11:30;;;;;;;3.10;2.90;;;;;;;22.92;47.04;98047.69;5115070;28;20244;-52
2021/09/19 04:13:56;;;;;;;2.77;2.63;;;;;;;22.92;46.96;98055.69;5114690;28;20207;-53
2021/09/19 04:16:23;;;;;;;3.17;2.97;;;;;;;22.92;47.01;98052.19;5114398;28;20183;-52
2021/09/19 04:18:49;;;;;;;3.00;2.90;;;;;;;22.92;47.01;98044.19;5114553;28;20262;-52
2021/09/19 04:21:16;;;;;;;2.97;2.77;;;;;;;22.90;47.03;98041.72;5114406;28;20557;-52
2021/09/19 04:23:42;;;;;;;3.10;2.90;;;;;;;22.94;47.08;98050.13;5114288;28;20187;-53
2021/09/19 04:26:09;;;;;;;2.70;2.60;;;;;;;22.93;46.86;98049.34;5114549;28;20190;-52
2021/09/19 04:28:35;;;;;;;2.70;2.60;;;;;;;22.95;46.84;98052.63;5114119;28;20191;-53
2021/09/19 04:31:02;;;;;;;3.10;2.90;;;;;;;22.95;47.01;98041.97;5114746;28;20224;-54
2021/09/19 04:33:28;;;;;;;2.83;2.73;;;;;;;22.95;46.78;98054.44;5114493;28;20199;-55
2021/09/19 04:35:55;;;;;;;2.93;2.73;;;;;;;22.94;47.07;98053.63;5114330;28;20191;-52
2021/09/19 04:38:21;;;;;;;3.03;2.83;;;;;;;22.94;46.78;98056.28;5114084;28;20202;-53
2021/09/19 04:40:48;;;;;;;3.10;2.90;;;;;;;22.91;47.08;98051.34;5114199;28;20272;-52
2021/09/19 04:43:14;;;;;;;3.47;3.27;;;;;;;22.91;46.95;98051.34;5113980;28;20233;-52
2021/09/19 04:45:41;;;;;;;4.03;2.80;;;;;;;22.91;47.09;98050.53;5114186;28;20195;-55
2021/09/19 04:48:07;;;;;;;3.10;2.90;;;;;;;22.90;46.79;98054.22;5113884;28;20270;-52
2021/09/19 04:50:34;;;;;;;3.13;2.93;;;;;;;22.89;47.00;98055.25;5114092;28;20211;-54
2021/09/19 04:53:01;;;;;;;2.53;2.43;;;;;;;22.88;47.03;98067.72;5114359;28;20190;-52
2021/09/19 04:55:27;;;;;;;3.00;2.80;;;;;;;22.87;47.05;98063.41;5113682;28;20268;-52
2021/09/19 04:57:54;;;;;;;3.13;2.93;;;;;;;22.85;47.02;98068.13;5113911;28;20183;-52
2021/09/19 05:00:20;;;;;;;3.10;2.90;;;;;;;22.85;47.12;98068.13;5113620;28;20616;-52
2021/09/19 05:02:46;;;;;;;2.83;2.63;;;;;;;22.84;47.08;98066.47;5113706;28;20244;-52
2021/09/19 05:05:13;;;;;;;3.23;3.03;;;;;;;22.83;47.19;98070.16;5113471;28;20190;-52
2021/09/19 05:07:40;;;;;;;3.03;2.83;;;;;;;22.82;47.17;98077.31;5113691;28;20195;-54
2021/09/19 05:10:07;;;;;;;3.03;2.83;;;;;;;22.85;47.06;98084.09;5114294;28;20536;-55
2021/09/19 05:12:33;;;;;;;2.80;2.60;;;;;;;22.84;46.98;98085.09;5113816;28;20240;-52
2021/09/19 05:15:00;;;;;;;3.20;3.00;;;;;;;22.83;47.18;98089.59;5113489;28;20207;-52
2021/09/19 05:17:27;;;;;;;3.10;2.90;;;;;;;22.81;47.14;98091.63;5113521;28;20240;-52
2021/09/19 05:19:53;;;;;;;3.00;2.80;;;;;;;22.81;46.99;98086.31;5113436;28;20203;-52
2021/09/19 05:22:20;;;;;;;2.63;2.43;;;;;;;22.79;47.14;98084.88;5113746;28;20195;-52
2021/09/19 05:24:47;;;;;;;2.93;2.73;;;;;;;22.79;47.22;98084.88;5112296;28;20232;-52
2021/09/19 05:27:13;;;;;;;2.80;2.60;;;;;;;22.80;47.18;98083.88;5113395;28;20236;-53
2021/09/19 05:29:40;;;;;;;2.90;2.70;;;;;;;22.79;47.19;98091.00;5113386;28;20222;-54
2021/09/19 05:32:06;;;;;;;2.80;2.60;;;;;;;22.80;47.10;98091.84;5113688;28;20191;-52
2021/09/19 05:34:33;;;;;;;3.07;2.87;;;;;;;22.78;47.00;98088.56;5113582;28;20203;-53
2021/09/19 05:36:59;;;;;;;2.80;2.60;;;;;;;22.81;47.08;98093.47;5113358;28;20228;-52
2021/09/19 05:39:26;;;;;;;2.80;2.60;;;;;;;22.82;47.09;98095.13;5113525;28;20253;-52
2021/09/19 05:41:52;;;;;;;3.00;2.80;;;;;;;22.87;46.79;98094.53;5113547;28;20567;-52
2021/09/19 05:44:19;;;;;;;2.83;2.63;;;;;;;22.91;46.93;98104.56;5113819;28;20192;-53
2021/09/19 05:46:46;;;;;;;2.87;2.67;;;;;;;22.94;46.83;98108.69;5113222;28;20183;-52
2021/09/19 05:49:12;;;;;;;2.50;2.40;;;;;;;22.97;46.64;98103.78;5113135;28;20264;-55
2021/09/19 05:51:39;;;;;;;2.93;2.73;;;;;;;23.00;46.73;98110.56;5113823;28;20240;-52
2021/09/19 05:54:05;;;;;;;2.87;2.70;;;;;;;23.04;46.70;98108.31;5113346;28;20257;-53
2021/09/19 05:56:32;;;;;;;2.70;2.50;;;;;;;23.08;46.59;98101.59;5113156;28;20195;-55
2021/09/19 05:58:58;;;;;;;2.90;2.70;;;;;;;23.13;46.33;98107.13;5113103;28;20244;-52
2021/09/19 06:01:25;;;;;;;2.80;2.60;;;;;;;23.15;46.38;98107.72;5113150;28;20194;-53
2021/09/19 06:03:52;;;;;;;2.80;2.60;;;;;;;23.18;46.34;98109.19;5113053;28;20232;-52
2021/09/19 06:06:18;;;;;;;2.57;2.37;;;;;;;23.20;46.43;98110.59;5113079;28;20191;-52
2021/09/19 06:08:45;;;;;;;2.60;2.50;;;;;;;23.21;46.41;98109.59;5113239;28;20196;-53
2021/09/19 06:11:11;;;;;;;2.43;2.33;;;;;;;23.24;46.16;98108.38;5113056;28;20187;-52
2021/09/19 06:13:38;;;;;;;2.70;2.50;;;;;;;23.25;46.31;98104.69;5112945;28;20562;-55
2021/09/19 06:16:04;;;;;;;2.30;2.20;;;;;;;23.28;46.19;98114.16;5114714;28;20211;-54
2021/09/19 06:18:31;;;;;;;2.60;2.40;;;;;;;23.28;46.11;98108.84;5116616;28;20653;-54
2021/09/19 06:21:01;;;;;;;2.60;2.40;;;;;;;23.30;46.12;98109.44;5116702;28;20183;-52
2021/09/19 06:23:29;;;;;;;2.80;2.60;;;;;;;23.31;46.17;98111.09;5117168;28;20200;-54
2021/09/19 06:25:56;;;;;;;2.53;2.43;;;;;;;23.33;45.97;98114.38;5116783;28;20191;-53
2021/09/19 06:28:23;;;;;;;2.20;2.10;;;;;;;23.32;46.22;98097.59;5116539;28;20236;-52
2021/09/19 06:30:49;;;;;;;2.30;2.17;;;;;;;23.36;46.08;98101.47;5116463;28;20211;-52
2021/09/19 06:33:16;;;;;;;2.60;2.50;;;;;;;23.38;45.96;98099.44;5116441;28;20578;-55
2021/09/19 06:35:45;;;;;;;2.40;2.30;;;;;;;23.39;45.89;98098.41;5116640;28;20214;-54
2021/09/19 06:38:12;;;;;;;2.50;2.40;;;;;;;23.39;46.03;98092.25;5116441;28;20183;-53
2021/09/19 06:40:38;;;;;;;2.90;2.70;;;;;;;23.38;46.09;98090.59;5116364;28;20199;-53
2021/09/19 06:43:05;;;;;;;2.50;2.40;;;;;;;23.38;46.05;98087.94;5116261;28;20232;-52
2021/09/19 06:45:31;;;;;;;2.43;2.33;;;;;;;23.38;46.07;98091.44;5116509;28;20176;-53
2021/09/19 06:47:58;;;;;;;2.57;2.47;;;;;;;23.42;45.97;98093.69;5116472;28;20183;-52
2021/09/19 06:50:24;;;;;;;2.57;2.37;;;;;;;23.40;46.03;98093.91;5116091;28;20206;-52
2021/09/19 06:52:51;;;;;;;2.67;2.47;;;;;;;23.40;46.17;98080.59;5116251;28;20220;-54
2021/09/19 06:55:17;;;;;;;2.57;2.37;;;;;;;23.39;46.12;98094.91;5116472;28;20203;-54
2021/09/19 06:57:44;;;;;;;3.07;2.63;;;;;;;23.29;45.68;98091.84;5116351;28;20183;-58
2021/09/19 07:00:13;;;;;;;2.53;2.33;;;;;;;23.20;45.28;98081.31;5116326;28;20211;-55
2021/09/19 07:02:39;;;;;;;2.90;2.70;;;;;;;23.15;45.01;98088.25;5116461;28;20711;-57
2021/09/19 07:05:07;;;;;;;2.50;2.30;;;;;;;23.11;44.77;98087.88;5116094;28;20546;-56
2021/09/19 07:07:34;;;;;;;2.13;2.03;;;;;;;23.08;44.82;98088.28;5116037;28;20195;-56
2021/09/19 07:10:00;;;;;;;2.30;2.10;;;;;;;23.00;44.73;98091.09;5114380;28;20214;-56
2021/09/19 07:12:27;;;;;;;2.50;2.30;;;;;;;22.95;44.75;98089.03;5116006;28;20192;-56
2021/09/19 07:14:53;;;;;;;2.30;2.20;;;;;;;22.90;44.74;98086.97;5115710;28;20233;-53
2021/09/19 07:17:20;;;;;;;2.20;2.00;;;;;;;22.88;44.63;98089.00;5115566;28;20237;-50
2021/09/19 07:19:46;;;;;;;2.17;1.97;;;;;;;22.86;44.75;98090.25;5115432;28;20261;-56
2021/09/19 07:22:13;;;;;;;2.40;2.20;;;;;;;22.85;44.86;98088.59;5115791;28;20669;-55
2021/09/19 07:24:39;;;;;;;2.40;2.20;;;;;;;22.82;44.61;98095.94;5115711;28;20233;-53
2021/09/19 07:27:06;;;;;;;2.43;2.20;;;;;;;22.81;44.73;98096.16;5115306;28;20195;-55
2021/09/19 07:29:33;;;;;;;2.10;1.83;;;;;;;22.79;44.86;98100.84;5115228;28;20210;-56
2021/09/19 07:32:06;;;;;;;2.20;2.00;;;;;;;22.78;44.81;98104.53;5115377;28;20300;-54
2021/09/19 07:34:34;;;;;;;2.20;2.00;;;;;;;22.79;44.88;98109.63;5115272;28;20248;-54
2021/09/19 07:37:03;;;;;;;2.00;1.80;;;;;;;22.78;44.76;98112.50;5115607;28;20196;-52
2021/09/19 07:39:33;;;;;;;2.60;2.20;;;;;;;22.75;44.93;98116.38;5115585;28;20233;-53
2021/09/19 07:42:00;;;;;;;2.27;1.73;;;;;;;22.77;44.98;98118.84;5115086;28;20187;-56
2021/09/19 07:44:27;;;;;;;1.93;1.83;;;;;;;22.81;44.85;98123.56;5115618;28;20244;-56
2021/09/19 07:46:53;;;;;;;1.80;1.70;;;;;;;22.79;44.80;98130.09;5115492;28;20191;-56
2021/09/19 07:49:21;;;;;;;2.40;1.80;;;;;;;22.82;44.88;98137.69;5115012;28;20207;-54
2021/09/19 07:51:48;;;;;;;2.20;2.00;;;;;;;22.83;44.70;98134.81;5115061;28;20199;-55
2021/09/19 07:54:15;;;;;;;1.87;1.77;;;;;;;22.86;44.54;98130.94;5115155;28;20614;-55
2021/09/19 07:56:41;;;;;;;1.70;1.60;;;;;;;22.87;44.73;98129.94;5113727;28;20587;-56
2021/09/19 07:59:08;;;;;;;1.77;1.67;;;;;;;22.88;44.62;98131.56;5114938;28;20212;-56
2021/09/19 08:01:34;;;;;;;1.80;1.70;;;;;;;22.92;44.83;98132.00;5114051;28;20183;-56
2021/09/19 08:04:02;;;;;;;1.67;1.57;;;;;;;22.93;44.70;98134.47;5114744;28;20187;-53
2021/09/19 08:06:29;;;;;;;2.47;1.83;;;;;;;22.96;44.67;98139.41;5114786;28;20281;-54
2021/09/19 08:08:55;;;;;;;1.90;1.80;;;;;;;22.98;44.62;98139.19;5114734;28;20206;-55
2021/09/19 08:11:22;;;;;;;1.70;1.60;;;;;;;23.00;44.83;98136.34;5114937;28;20191;-55
2021/09/19 08:13:48;;;;;;;2.03;1.73;;;;;;;22.99;44.75;98137.34;5114415;28;20226;-55
2021/09/19 08:16:16;;;;;;;1.97;1.87;;;;;;;22.99;44.81;98145.34;5114478;28;20203;-55
2021/09/19 08:18:42;;;;;;;3.67;2.10;;;;;;;22.99;44.85;98148.00;5114631;28;20175;-56
2021/09/19 08:21:09;;;;;;;2.87;2.07;;;;;;;23.01;44.93;98151.28;5114511;28;20244;-55
2021/09/19 08:23:35;;;;;;;2.33;1.47;;;;;;;23.03;44.79;98152.75;5114417;28;20252;-55
2021/09/19 08:26:02;;;;;;;2.63;1.73;;;;;;;23.06;45.11;98159.47;5115100;28;20228;-53
2021/09/19 08:28:29;;;;;;;2.90;1.93;;;;;;;23.07;45.07;98150.47;5115055;28;20195;-53
2021/09/19 08:30:56;;;;;;;1.97;1.63;;;;;;;23.13;45.02;98149.69;5114511;28;20187;-52
2021/09/19 08:33:27;;;;;;;2.80;1.70;;;;;;;23.11;44.99;98147.22;5114778;28;20187;-51
2021/09/19 08:35:55;;;;;;;1.80;1.70;;;;;;;23.13;45.29;98149.69;5114882;27;20664;-52
2021/09/19 08:38:22;;;;;;;2.90;2.00;;;;;;;23.16;45.29;98148.47;5113872;28;20188;-52
2021/09/19 08:40:49;;;;;;;2.27;1.70;;;;;;;23.16;45.19;98143.97;5114591;28;20556;-52
2021/09/19 08:43:16;;;;;;;2.37;2.17;;;;;;;23.14;45.02;98146.03;5115290;28;20719;-53
2021/09/19 08:45:48;;;;;;;1.80;1.70;;;;;;;23.16;45.25;98143.13;5115572;28;20188;-53
2021/09/19 08:48:20;;;;;;;2.60;1.97;;;;;;;23.17;45.21;98129.66;5114977;28;20180;-52
2021/09/19 08:50:50;;;;;;;2.30;1.60;;;;;;;23.19;45.05;98140.09;5115047;28;20788;-55
2021/09/19 08:53:17;;;;;;;1.87;1.77;;;;;;;23.20;45.24;98139.88;5115436;28;20651;-53
2021/09/19 08:55:44;;;;;;;2.70;1.90;;;;;;;23.20;45.11;98137.22;5114729;28;20211;-52
2021/09/19 08:58:12;;;;;;;2.47;1.87;;;;;;;23.22;45.29;98143.16;5115043;28;20536;-54
2021/09/19 09:00:42;;;;;;;2.00;1.83;;;;;;;23.24;45.29;98135.81;5114505;28;20215;-53
2021/09/19 09:03:11;;;;;;;2.30;2.03;;;;;;;23.27;45.20;98145.25;5114610;28;20630;-52
2021/09/19 09:05:39;;;;;;;2.00;1.90;;;;;;;23.24;45.33;98138.50;5115009;28;20220;-53
2021/09/19 09:08:07;;;;;;;2.17;2.00;;;;;;;23.23;45.30;98136.81;5114531;28;20187;-52
2021/09/19 09:10:43;;;;;;;2.23;2.13;;;;;;;23.25;45.39;98142.78;5114612;28;20264;-53
2021/09/19 09:13:12;;;;;;;2.33;2.13;;;;;;;23.28;45.32;98135.44;5114651;28;20175;-54
2021/09/19 09:15:45;;;;;;;2.30;1.90;;;;;;;23.29;45.37;98137.09;5114681;28;20237;-50
2021/09/19 09:18:31;;;;;;;2.50;2.27;;;;;;;23.27;45.33;98133.81;5114247;28;20199;-52
2021/09/19 09:21:10;;;;;;;2.23;2.03;;;;;;;23.29;45.32;98131.78;5114630;28;20581;-52
2021/09/19 09:23:38;;;;;;;2.00;1.90;;;;;;;23.30;45.26;98133.41;5114996;28;20266;-54
2021/09/19 09:26:30;;;;;;;2.13;2.03;;;;;;;23.28;45.15;98124.81;5114504;28;20244;-55
2021/09/19 09:29:00;;;;;;;3.43;2.00;;;;;;;23.27;45.33;98131.16;5114841;28;20207;-52
2021/09/19 09:31:28;;;;;;;2.00;1.90;;;;;;;23.25;45.57;98129.47;5115032;28;20234;-54
2021/09/19 09:34:05;;;;;;;2.20;1.93;;;;;;;23.23;45.46;98134.16;5115046;28;20215;-54
2021/09/19 09:36:53;;;;;;;2.20;2.00;;;;;;;23.24;45.39;98135.81;5114613;28;20349;-53
2021/09/19 09:39:23;;;;;;;1.80;1.70;;;;;;;23.23;45.45;98126.16;5114408;28;20211;-53
2021/09/19 09:41:50;;;;;;;2.53;2.30;;;;;;;23.30;45.35;98133.41;5114418;28;20195;-53
2021/09/19 09:44:37;;;;;;;2.00;1.90;;;;;;;23.31;45.42;98135.84;5114605;28;20214;-54
2021/09/19 09:47:10;;;;;;;2.07;1.93;;;;;;;23.30;45.43;98144.88;5114715;28;20179;-52
2021/09/19 09:49:49;;;;;;;2.07;1.97;;;;;;;23.28;45.47;98135.44;5114464;28;20233;-53
2021/09/19 09:52:22;;;;;;;2.27;2.07;;;;;;;23.19;45.61;98135.59;5118663;28;20576;-54
2021/09/19 09:55:10;;;;;;;2.20;1.97;;;;;;;23.27;45.36;98133.81;5118218;28;20196;-54
2021/09/19 09:57:36;;;;;;;2.20;1.90;;;;;;;23.20;45.48;98134.56;5117212;28;20179;-52
2021/09/19 10:00:07;;;;;;;2.50;2.30;;;;;;;23.16;45.45;98140.47;5117978;28;20763;-54
2021/09/19 10:02:36;;;;;;;2.00;1.80;;;;;;;23.12;45.82;98142.75;5118598;28;20530;-54
2021/09/19 10:05:05;;;;;;;2.13;2.03;;;;;;;23.13;45.66;98135.56;5118458;28;20207;-54
2021/09/19 10:07:34;;;;;;;1.90;1.80;;;;;;;23.13;45.67;98132.91;5118426;28;20546;-52
2021/09/19 10:10:04;;;;;;;2.17;1.97;;;;;;;23.16;45.68;98132.50;5117612;28;20234;-54
2021/09/19 10:12:30;;;;;;;2.13;2.03;;;;;;;23.13;45.81;98140.88;5117958;28;20183;-52
2021/09/19 10:14:57;;;;;;;2.23;2.03;;;;;;;23.11;45.68;98138.44;5118443;28;20211;-52
2021/09/19 10:17:27;;;;;;;2.23;2.10;;;;;;;23.10;45.63;98132.28;5117647;28;20216;-53
2021/09/19 10:19:55;;;;;;;4.30;2.00;;;;;;;23.08;45.64;98136.19;5117593;28;20248;-54
2021/09/19 10:22:26;;;;;;;2.10;1.90;;;;;;;23.08;45.80;98131.66;5117104;28;20188;-54
2021/09/19 10:24:53;;;;;;;2.40;2.20;;;;;;;23.09;45.94;98135.16;5119172;28;20656;-53
2021/09/19 10:27:26;;;;;;;2.50;2.30;;;;;;;23.02;45.99;98123.66;5119406;28;20187;-55
2021/09/19 10:29:57;;;;;;;2.70;2.50;;;;;;;23.01;46.15;98132.66;5118851;28;20211;-54
2021/09/19 10:32:38;;;;;;;2.43;2.23;;;;;;;23.03;45.91;98127.94;5118772;28;20321;-53
2021/09/19 10:35:18;;;;;;;3.20;2.23;;;;;;;23.06;45.70;98125.72;5118846;28;20187;-55
2021/09/19 10:38:05;;;;;;;2.60;2.40;;;;;;;23.05;45.72;98123.25;5118548;28;20191;-54
2021/09/19 10:40:38;;;;;;;2.70;2.50;;;;;;;23.03;45.90;98122.63;5118613;28;20732;-53
2021/09/19 10:43:08;;;;;;;3.07;2.77;;;;;;;22.96;45.81;98128.75;5118592;28;20232;-53
2021/09/19 10:45:43;;;;;;;3.43;2.03;;;;;;;22.98;45.88;98125.88;5118437;28;20187;-54
2021/09/19 10:48:18;;;;;;;2.53;2.33;;;;;;;23.01;45.62;98122.00;5118389;28;20183;-56
2021/09/19 10:50:46;;;;;;;2.60;2.30;;;;;;;23.05;45.84;98125.91;5118459;28;20206;-55
2021/09/19 10:53:20;;;;;;;2.60;2.40;;;;;;;23.08;45.69;98126.34;5118416;28;20240;-52
2021/09/19 10:55:59;;;;;;;2.70;2.20;;;;;;;23.10;45.86;98129.63;5118230;28;20196;-53
2021/09/19 10:58:27;;;;;;;2.63;2.33;;;;;;;23.09;46.04;98122.66;5118469;28;20637;-56
2021/09/19 11:01:12;;;;;;;2.23;2.10;;;;;;;23.13;45.90;98131.06;5117580;28;20289;-55
2021/09/19 11:03:44;;;;;;;2.40;2.13;;;;;;;23.17;45.94;98126.97;5118762;28;20187;-55
2021/09/19 11:06:37;;;;;;;2.50;2.30;;;;;;;23.20;45.89;98134.56;5116961;28;20172;-53
2021/09/19 11:09:35;;;;;;;2.33;2.23;;;;;;;23.24;45.76;98125.19;5117539;28;20211;-56
2021/09/19 11:12:14;;;;;;;2.57;2.23;;;;;;;23.34;45.54;98116.00;5106594;28;20202;-56
2021/09/19 11:15:00;;;;;;;2.30;2.10;;;;;;;23.45;45.47;98118.09;5118240;28;20194;-56
2021/09/19 11:17:31;;;;;;;2.67;2.20;;;;;;;23.45;45.50;98117.25;5119083;28;20218;-56
2021/09/19 11:20:13;;;;;;;2.37;2.17;;;;;;;23.44;45.36;98111.13;5118784;28;20225;-54
2021/09/19 11:22:45;;;;;;;2.13;2.00;;;;;;;23.32;45.66;98107.41;5117575;28;20236;-55
2021/09/19 11:25:14;;;;;;;2.93;2.30;;;;;;;23.28;45.56;98103.50;5118248;28;20172;-55
2021/09/19 11:27:44;;;;;;;2.40;2.17;;;;;;;23.27;45.57;98107.19;5117285;28;20232;-53
2021/09/19 11:30:12;;;;;;;2.57;2.20;;;;;;;23.27;45.74;98109.84;5117264;28;20256;-54
2021/09/19 11:32:39;;;;;;;2.50;2.20;;;;;;;23.27;45.68;98108.00;5116468;28;20350;-54
2021/09/19 11:35:08;;;;;;;2.30;2.17;;;;;;;23.26;45.71;98111.69;5117154;28;20183;-53
2021/09/19 11:37:35;;;;;;;2.50;2.10;;;;;;;23.27;45.60;98115.19;5116628;28;20184;-54
2021/09/19 11:40:09;;;;;;;2.30;2.10;;;;;;;23.28;45.61;98108.84;5115562;28;20355;-55